Flight Track Log - Related Links

Times and Time Zones

All times are in EST time to prevent confusion due to time zone crossing. See the AFL1183 flight status page for this flight to view local times or setup timezone preferences in your user account.

Time Position Orientation Groundspeed Altitude Reporting Facility
EST Latitude Longitude Course Direction KTS MPH feet Rate Location/Type
Sun 09:48:00 AM 50.2368 42.5926 334° Northwest  Level Estimated
Sun 09:49:00 AM 50.3350 42.5162 334° Northwest  Level Estimated
Sun 09:50:00 AM 50.4331 42.4395 334° Northwest  Level Estimated
Sun 09:51:00 AM 50.5312 42.3625 333° Northwest  Level Estimated
Sun 09:52:00 AM 50.6292 42.2851 333° Northwest  Level Estimated
Sun 09:53:00 AM 50.7271 42.2075 333° Northwest  Level Estimated
Sun 09:54:00 AM 50.8250 42.1295 333° Northwest  Level Estimated
Sun 09:55:00 AM 50.9229 42.0511 333° Northwest  Level Estimated
Sun 09:56:00 AM 51.0207 41.9725 333° Northwest  Level Estimated
Sun 09:57:00 AM 51.1184 41.8935 333° Northwest  Level Estimated
Sun 09:58:00 AM 51.2148 41.8153 333° Northwest  Level Estimated
Sun 09:59:00 AM 51.3111 41.7367 333° Northwest  Level Estimated
Sun 10:00:00 AM 51.4074 41.6578 333° Northwest  Level Estimated
Sun 10:01:00 AM 51.5036 41.5785 333° Northwest  Level Estimated
Sun 10:02:00 AM 51.5998 41.4990 333° Northwest  Level Estimated
Sun 10:03:00 AM 51.6959 41.4190 333° Northwest  Level Estimated
Sun 10:04:00 AM 51.7920 41.3388 333° Northwest  Level Estimated
Sun 10:05:00 AM 51.8880 41.2582 333° Northwest  Level Estimated
Sun 10:06:00 AM 51.9839 41.1772 333° Northwest  Level Estimated
Sun 10:07:00 AM 52.0798 41.0960 332° Northwest  Level Estimated
Sun 10:08:00 AM 52.1756 41.0143 332° Northwest  Level Estimated
Sun 10:09:00 AM 52.2714 40.9323 332° Northwest  Level Estimated
Sun 10:10:00 AM 52.3671 40.8500 332° Northwest  Level Estimated
Sun 10:11:00 AM 52.4628 40.7673 332° Northwest  Level Estimated
Sun 10:12:00 AM 52.5584 40.6842 332° Northwest  Level Estimated
Sun 10:13:00 AM 52.6540 40.6008 332° Northwest  Level Estimated
Sun 10:14:00 AM 52.7495 40.5170 332° Northwest  Level Estimated
Sun 10:15:00 AM 52.8449 40.4328 332° Northwest  Level Estimated
Sun 10:16:00 AM 52.9403 40.3483 332° Northwest  Level Estimated
Sun 10:17:00 AM 53.0356 40.2634 332° Northwest  Level Estimated
Sun 10:18:00 AM 53.1308 40.1781 332° Northwest  Level Estimated
Sun 10:19:00 AM 53.2260 40.0925 332° Northwest  Level Estimated
Sun 10:20:00 AM 53.3211 40.0064 332° Northwest  Level Estimated
Sun 10:21:00 AM 53.4162 39.9200 332° Northwest  Level Estimated
Sun 10:22:00 AM 53.5112 39.8332 331° Northwest  Level Estimated
Sun 10:23:00 AM 53.6062 39.7460 331° Northwest  Level Estimated
Sun 10:24:00 AM 53.7010 39.6584 331° Northwest  Level Estimated
Sun 10:25:00 AM 53.7958 39.5704 331° Northwest  Level Estimated
Sun 10:26:00 AM 53.8906 39.4820 331° Northwest  Level Estimated
Sun 10:27:00 AM 53.9853 39.3932 331° Northwest  Level Estimated
Sun 10:28:00 AM 54.0799 39.3041 331° Northwest  Level Estimated
Sun 10:29:00 AM 54.1744 39.2145 331° Northwest  Level Estimated
Sun 10:30:00 AM 54.2689 39.1245 331° Northwest  Level Estimated
Sun 10:31:00 AM 54.3633 39.0340 331° Northwest  Level Estimated
Sun 10:32:00 AM 54.4577 38.9432 331° Northwest  Level Estimated
Sun 10:33:00 AM 54.5520 38.8519 331° Northwest  Level Estimated
Sun 10:34:00 AM 54.6462 38.7603 331° Northwest  Level Estimated
Sun 10:35:00 AM 54.7403 38.6681 331° Northwest  Level Estimated
Sun 10:36:00 AM 54.8344 38.5756 330° Northwest  Level Estimated
Sun 10:37:00 AM 54.9284 38.4826 330° Northwest  Level Estimated
Sun 10:38:00 AM 55.0223 38.3892 330° Northwest  Level Estimated
Sun 10:39:00 AM 55.1162 38.2954 330° Northwest  Level Estimated
Sun 10:40:00 AM 55.2100 38.2011 330° Northwest  Level Estimated
Sun 10:41:00 AM 55.3037 38.1064 330° Northwest  Level Estimated
Sun 10:42:00 AM 55.3973 38.0112 330° Northwest  Level Estimated
Sun 10:43:00 AM 55.4909 37.9156 330° Northwest  Level Estimated
Sun 10:44:00 AM 55.5844 37.8195 330° Northwest  Level Estimated
Sun 10:45:00 AM 55.6778 37.7229 330° Northwest  Level Estimated
Sun 10:46:00 AM 55.7711 37.6259 330° Northwest  Level Estimated
Sun 10:47:00 AM 55.8644 37.5284 330° Northwest  Level Estimated
Sun 10:48:00 AM 55.9576 37.4305 330° Northwest  Level Estimated
Sun 10:49:00 AM 55.9726 37.4146 329° Northwest  Level Estimated
Sun 10:50:00 AM 55.9726 37.4146 344° North  Level Estimated
Sun 10:51:00 AM 55.9726 37.4146 344° North  Level Estimated
Sun 10:52:00 AM 55.9726 37.4146 344° North  Level Estimated
Sun 10:53:00 AM 55.9726 37.4146 344° North  Level Estimated
Sun 10:54:00 AM 55.9726 37.4146 344° North  Level Estimated
Sun 10:55:00 AM 55.9726 37.4146 344° North  Level Estimated
Sun 10:56:00 AM 55.9726 37.4146 344° North  Level Estimated
Sun 10:57:00 AM 55.9726 37.4146 344° North  Level Estimated
Sun 10:58:00 AM 55.9726 37.4146 344° North  Level Estimated
Sun 10:59:00 AM 55.9726 37.4146 344° North  Level Estimated
Sun 11:00:00 AM 55.9726 37.4146 344° North  Level Estimated
Sun 11:01:00 AM 55.9726 37.4146 344° North  Level Estimated
Sun 11:02:00 AM 55.9726 37.4146 344° North  Level Estimated
Sun 11:03:00 AM 55.9726 37.4146 344° North  Level Estimated
Sun 11:04:00 AM 55.9726 37.4146 344° North  Level Estimated
Sun 11:05:00 AM 55.9726 37.4146 344° North  Level Estimated
Sun 11:06:00 AM 55.9726 37.4146 344° North  Level Estimated
Sun 11:07:00 AM 55.9726 37.4146 344° North  Level Estimated
Sun 11:08:00 AM 55.9726 37.4146 344° North  Level Estimated

Login

Don't have an account? Register now (free) for customized features, flight alerts, and more!